Time;durP1;ratioP1;P1;durP2;ratioP2;P2;SDS_P1;SDS_P2;PMS_P1;PMS_P2;Temp;Humidity;BMP_temperature;BMP_pressure;BME280_temperature;BME280_humidity;BME280_pressure;Samples;Min_cycle;Max_cycle;Signal;HPM_P1;HPM_P2
2022/01/06 00:02:13;;;;;;;10.43;4.88;;;;;;;2.20;100.00;97332.72;5154392;27;20069;-67
2022/01/06 00:04:39;;;;;;;9.85;5.55;;;;;;;2.24;100.00;97330.88;5153918;27;20053;-67
2022/01/06 00:07:05;;;;;;;8.10;4.63;;;;;;;2.31;100.00;97339.13;5153890;27;20053;-67
2022/01/06 00:09:32;;;;;;;6.28;4.20;;;;;;;2.50;100.00;97324.84;5154217;27;20486;-67
2022/01/06 00:11:58;;;;;;;5.80;4.50;;;;;;;2.47;100.00;97341.00;5154065;27;20043;-67
2022/01/06 00:14:38;;;;;;;7.50;4.40;;;;;;;2.42;100.00;97342.06;5154063;27;20053;-67
2022/01/06 00:17:20;;;;;;;4.78;3.85;;;;;;;2.34;100.00;97343.06;5153784;27;20042;-67
2022/01/06 00:25:15;;;;;;;5.70;3.38;;;;;;;2.17;100.00;97340.78;5154139;27;20070;-68
2022/01/06 00:27:41;;;;;;;7.20;4.78;;;;;;;2.12;100.00;97339.88;5153807;27;20424;-67
2022/01/06 00:30:09;;;;;;;6.82;4.43;;;;;;;2.11;100.00;97327.53;5153449;27;20147;-68
2022/01/06 00:32:36;;;;;;;6.20;3.92;;;;;;;2.09;100.00;97326.31;5153671;27;20057;-68
2022/01/06 00:35:03;;;;;;;4.38;3.35;;;;;;;2.07;100.00;97331.28;5153787;27;20055;-68
2022/01/06 00:37:29;;;;;;;4.68;3.47;;;;;;;2.14;100.00;97331.44;5153547;27;20055;-67
2022/01/06 00:39:55;;;;;;;4.63;3.53;;;;;;;2.17;100.00;97329.97;5153454;27;20057;-67
2022/01/06 00:42:22;;;;;;;3.85;3.05;;;;;;;2.20;100.00;97334.63;5153729;27;20047;-67
2022/01/06 00:44:48;;;;;;;3.28;2.90;;;;;;;2.29;100.00;97322.47;5153610;27;20053;-67
2022/01/06 00:47:14;;;;;;;4.10;2.97;;;;;;;2.27;100.00;97326.69;5153902;27;20047;-68
2022/01/06 00:49:41;;;;;;;3.67;3.28;;;;;;;2.28;100.00;97322.84;5153610;27;20086;-67
2022/01/06 00:52:07;;;;;;;3.60;2.60;;;;;;;2.25;100.00;97326.25;5153589;27;20042;-67
2022/01/06 00:54:34;;;;;;;3.25;2.40;;;;;;;2.19;100.00;97327.66;5153351;27;20050;-67
2022/01/06 00:57:00;;;;;;;2.85;2.35;;;;;;;2.18;100.00;97332.28;5153662;27;20042;-68
2022/01/06 00:59:26;;;;;;;7.43;2.75;;;;;;;2.13;100.00;97332.56;5153231;27;20053;-68
2022/01/06 01:01:53;;;;;;;3.38;2.67;;;;;;;2.08;100.00;97339.03;5153432;27;20042;-67
2022/01/06 01:04:19;;;;;;;2.72;2.30;;;;;;;2.11;100.00;97334.84;5152975;27;20458;-67
2022/01/06 01:06:46;;;;;;;5.18;3.00;;;;;;;2.12;100.00;97331.00;5152732;27;20053;-68
2022/01/06 01:09:12;;;;;;;3.67;2.78;;;;;;;2.08;100.00;97339.03;5153138;27;20098;-67
2022/01/06 01:11:38;;;;;;;3.90;2.80;;;;;;;2.04;100.00;97330.06;5153324;27;20051;-67
2022/01/06 01:14:17;;;;;;;2.85;2.55;;;;;;;1.96;100.00;97331.03;5152965;27;20047;-68
2022/01/06 01:16:53;;;;;;;4.32;3.08;;;;;;;1.85;100.00;97330.03;5152984;27;20142;-67
2022/01/06 01:19:19;;;;;;;4.50;2.78;;;;;;;1.81;100.00;97323.78;5153193;27;20051;-68
2022/01/06 01:21:46;;;;;;;6.40;2.47;;;;;;;1.73;100.00;97327.44;5153060;27;20589;-67
2022/01/06 01:24:13;;;;;;;6.22;3.42;;;;;;;1.55;100.00;97329.72;5153101;27;20095;-68
2022/01/06 01:26:39;;;;;;;8.40;4.05;;;;;;;1.37;100.00;97324.69;5152774;27;20076;-67
2022/01/06 01:29:09;;;;;;;7.10;3.35;;;;;;;1.23;100.00;97326.25;5152970;27;20054;-67
2022/01/06 01:31:42;;;;;;;7.97;3.03;;;;;;;1.12;100.00;97331.38;5152754;27;20046;-68
2022/01/06 01:34:09;;;;;;;7.35;4.07;;;;;;;0.99;100.00;97325.28;5152738;27;20054;-68
2022/01/06 01:36:36;;;;;;;7.78;3.35;;;;;;;0.92;100.00;97325.88;5152731;27;20053;-67
2022/01/06 01:39:04;;;;;;;7.28;3.70;;;;;;;0.94;100.00;97306.66;5152494;27;20051;-68
2022/01/06 01:41:30;;;;;;;7.85;4.20;;;;;;;0.94;100.00;97290.47;5151394;27;20094;-67
2022/01/06 01:43:57;;;;;;;8.07;4.45;;;;;;;0.88;100.00;97286.44;5152609;27;20056;-67
2022/01/06 01:46:28;;;;;;;5.95;3.83;;;;;;;0.76;100.00;97278.44;5152903;27;20051;-67
2022/01/06 01:49:13;;;;;;;11.18;4.63;;;;;;;0.66;100.00;97275.09;5152427;27;20055;-68
2022/01/06 01:51:39;;;;;;;;;;;;;;;0.62;100.00;97276.16;5153057;27;20043;-67
2022/01/06 01:54:06;;;;;;;8.20;4.30;;;;;;;0.47;100.00;97272.31;5152352;27;19949;-67
2022/01/06 01:56:32;;;;;;;7.85;4.32;;;;;;;0.42;100.00;97264.44;5152716;27;20513;-67
2022/01/06 01:58:59;;;;;;;10.07;4.22;;;;;;;0.52;100.00;97263.16;5152252;27;20058;-67
2022/01/06 02:01:25;;;;;;;9.02;4.43;;;;;;;0.68;100.00;97239.72;5152263;27;20057;-67
2022/01/06 02:03:51;;;;;;;12.57;4.78;;;;;;;0.85;100.00;97225.09;5152289;27;20052;-67
2022/01/06 02:06:18;;;;;;;5.93;3.95;;;;;;;1.07;100.00;97204.81;5151887;27;20165;-67
2022/01/06 02:08:45;;;;;;;9.50;3.72;;;;;;;1.18;100.00;97197.75;5151497;27;20145;-67
2022/01/06 02:11:12;;;;;;;5.40;4.15;;;;;;;1.26;100.00;97196.75;5152017;27;20103;-67
2022/01/06 02:13:45;;;;;;;8.80;4.82;;;;;;;1.45;100.00;97192.53;5152550;27;20046;-67
2022/01/06 02:16:11;;;;;;;12.48;5.63;;;;;;;1.51;100.00;97205.41;5151864;27;20046;-67
2022/01/06 02:18:37;;;;;;;9.18;4.90;;;;;;;1.56;100.00;97215.16;5152173;27;20051;-67
2022/01/06 02:21:04;;;;;;;8.40;4.53;;;;;;;1.65;100.00;97221.94;5152123;27;20046;-67
2022/01/06 02:23:31;;;;;;;8.13;4.70;;;;;;;1.64;100.00;97241.19;5151943;27;20497;-67
2022/01/06 02:25:57;;;;;;;6.68;4.20;;;;;;;1.69;100.00;97246.31;5152010;27;20557;-67
2022/01/06 02:28:23;;;;;;;7.07;4.40;;;;;;;1.75;100.00;97268.44;5151877;27;20429;-68
2022/01/06 02:30:51;;;;;;;9.75;5.40;;;;;;;1.84;100.00;97277.13;5151931;27;20565;-68
2022/01/06 02:33:18;;;;;;;11.48;4.03;;;;;;;1.79;100.00;97304.41;5151639;27;20078;-68
2022/01/06 02:35:45;;;;;;;8.70;3.90;;;;;;;1.71;100.00;97332.41;5151890;27;20321;-67
2022/01/06 02:38:12;;;;;;;11.52;4.43;;;;;;;1.67;100.00;97348.53;5151492;27;20050;-67
2022/01/06 02:40:39;;;;;;;10.80;4.68;;;;;;;1.70;100.00;97355.94;5152173;27;20524;-67
2022/01/06 02:43:07;;;;;;;11.88;4.60;;;;;;;1.72;100.00;97363.69;5151491;27;20097;-68
2022/01/06 02:45:34;;;;;;;7.80;4.22;;;;;;;1.67;100.00;97380.16;5151890;27;20054;-67
2022/01/06 02:48:01;;;;;;;9.85;4.38;;;;;;;1.68;100.00;97395.25;5151580;27;20042;-67
2022/01/06 02:50:27;;;;;;;10.48;4.85;;;;;;;1.63;100.00;97407.88;5151620;27;20519;-66
2022/01/06 02:52:54;;;;;;;9.23;5.22;;;;;;;1.56;100.00;97410.38;5151286;27;20050;-67
2022/01/06 02:55:20;;;;;;;11.55;4.47;;;;;;;1.56;100.00;97412.31;5151424;27;20047;-67
2022/01/06 02:57:47;;;;;;;9.75;5.13;;;;;;;1.62;100.00;97410.91;5151463;27;20050;-68
2022/01/06 03:00:15;;;;;;;14.13;5.15;;;;;;;1.63;100.00;97416.00;5151410;27;20046;-67
2022/01/06 03:02:43;;;;;;;9.13;5.05;;;;;;;1.62;100.00;97410.91;5151358;27;20043;-67
2022/01/06 03:05:09;;;;;;;9.38;5.25;;;;;;;1.65;100.00;97413.72;5151488;27;20042;-67
2022/01/06 03:07:36;;;;;;;7.05;4.70;;;;;;;1.70;100.00;97412.69;5151171;27;20043;-67
2022/01/06 03:10:05;;;;;;;11.68;4.80;;;;;;;1.76;100.00;97407.78;5151167;27;20050;-67
2022/01/06 03:12:39;;;;;;;10.20;5.28;;;;;;;1.83;100.00;97424.97;5151696;27;20046;-67
2022/01/06 03:15:07;;;;;;;13.43;5.75;;;;;;;1.88;100.00;97424.69;5151381;27;20519;-67
2022/01/06 03:17:33;;;;;;;11.57;5.00;;;;;;;1.82;100.00;97436.88;5151557;27;20417;-67
2022/01/06 03:19:59;;;;;;;9.70;5.65;;;;;;;1.87;100.00;97449.38;5151290;27;20054;-67
2022/01/06 03:22:25;;;;;;;12.30;5.53;;;;;;;1.75;100.00;97471.84;5151325;27;20050;-67
2022/01/06 03:24:51;;;;;;;10.13;5.28;;;;;;;1.77;100.00;97469.59;5151220;27;20456;-67
2022/01/06 03:27:18;;;;;;;8.55;5.65;;;;;;;1.87;100.00;97470.97;5150950;27;20047;-67
2022/01/06 03:29:45;;;;;;;12.30;6.05;;;;;;;2.00;100.00;97463.53;5151277;27;20462;-67
2022/01/06 03:32:11;;;;;;;11.77;5.95;;;;;;;1.98;100.00;97469.31;5150858;27;20095;-67
2022/01/06 03:34:37;;;;;;;12.02;5.32;;;;;;;1.96;100.00;97471.56;5151058;27;20051;-68
2022/01/06 03:37:06;;;;;;;11.52;6.10;;;;;;;2.00;100.00;97469.75;5150668;27;20138;-68
2022/01/06 03:39:32;;;;;;;12.43;6.10;;;;;;;2.15;100.00;97475.50;5151273;27;20050;-68
2022/01/06 03:41:58;;;;;;;10.70;6.07;;;;;;;2.16;100.00;97480.53;5150831;27;20084;-68
2022/01/06 03:44:25;;;;;;;16.05;6.15;;;;;;;2.21;100.00;97491.09;5151036;27;20056;-68
2022/01/06 03:46:53;;;;;;;18.60;7.70;;;;;;;2.24;100.00;97501.22;5150687;27;20058;-68
2022/01/06 03:49:19;;;;;;;9.32;5.78;;;;;;;2.18;100.00;97513.44;5150847;27;20050;-68
2022/01/06 03:51:46;;;;;;;13.35;6.82;;;;;;;2.17;100.00;97517.28;5150856;27;20050;-68
2022/01/06 03:54:12;;;;;;;15.25;6.95;;;;;;;2.08;100.00;97514.75;5150666;27;20050;-68
2022/01/06 03:56:38;;;;;;;14.23;6.63;;;;;;;2.11;100.00;97518.66;5150991;27;20042;-68
2022/01/06 03:59:05;;;;;;;13.88;6.97;;;;;;;2.12;100.00;97509.41;5150477;27;20170;-68
2022/01/06 04:01:31;;;;;;;13.98;7.15;;;;;;;2.16;100.00;97521.09;5150694;27;20046;-68
2022/01/06 04:03:58;;;;;;;15.15;6.68;;;;;;;2.22;100.00;97514.28;5150611;27;20047;-68
2022/01/06 04:06:25;;;;;;;14.95;6.90;;;;;;;2.34;100.00;97516.91;5153818;27;20055;-68
2022/01/06 04:08:51;;;;;;;13.85;6.60;;;;;;;2.35;100.00;97518.47;5153939;27;20050;-68
2022/01/06 04:11:17;;;;;;;19.73;7.68;;;;;;;2.45;100.00;97521.78;5153940;27;20046;-68
2022/01/06 04:13:44;;;;;;;14.77;6.95;;;;;;;2.52;100.00;97524.66;5154174;27;20180;-68
2022/01/06 04:16:13;;;;;;;12.25;7.65;;;;;;;2.41;100.00;97547.97;5154063;27;20057;-68
2022/01/06 04:18:41;;;;;;;15.00;7.47;;;;;;;2.38;100.00;97552.16;5154128;27;20078;-68
2022/01/06 04:21:08;;;;;;;16.48;8.40;;;;;;;2.35;100.00;97552.84;5153850;27;20427;-68
2022/01/06 04:23:34;;;;;;;16.13;8.70;;;;;;;2.34;100.00;97557.47;5153930;27;20050;-68
2022/01/06 04:26:00;;;;;;;14.43;8.65;;;;;;;2.34;100.00;97551.28;5153804;27;20053;-68
2022/01/06 04:28:27;;;;;;;13.32;7.80;;;;;;;2.38;100.00;97554.06;5153965;27;20097;-68
2022/01/06 04:30:53;;;;;;;15.15;8.48;;;;;;;2.43;100.00;97546.47;5153684;27;20095;-68
2022/01/06 04:33:20;;;;;;;16.90;9.02;;;;;;;2.40;100.00;97540.97;5154263;27;20141;-68
2022/01/06 04:35:46;;;;;;;20.05;9.10;;;;;;;2.32;100.00;97543.50;5153594;27;20053;-68
2022/01/06 04:38:13;;;;;;;17.35;9.18;;;;;;;2.35;100.00;97534.69;5153981;27;20047;-67
2022/01/06 04:40:40;;;;;;;30.55;9.55;;;;;;;2.36;100.00;97541.66;5153534;27;20089;-68
2022/01/06 04:43:07;;;;;;;19.85;9.02;;;;;;;2.36;100.00;97536.25;5153499;27;20050;-68
2022/01/06 04:45:34;;;;;;;16.88;7.72;;;;;;;2.45;100.00;97527.97;5153669;27;20050;-68
2022/01/06 04:48:00;;;;;;;17.60;8.95;;;;;;;2.47;100.00;97527.63;5153477;27;20050;-69
2022/01/06 04:50:26;;;;;;;16.70;9.75;;;;;;;2.47;100.00;97531.13;5153477;27;20531;-68
2022/01/06 04:52:53;;;;;;;20.13;9.98;;;;;;;2.55;100.00;97524.72;5153401;27;20082;-68
2022/01/06 04:55:19;;;;;;;16.38;9.80;;;;;;;2.57;100.00;97535.22;5153302;27;20527;-68
2022/01/06 04:57:46;;;;;;;22.75;11.77;;;;;;;2.52;100.00;97533.53;5153099;27;20050;-68
2022/01/06 05:00:13;;;;;;;18.20;11.68;;;;;;;2.44;100.00;97537.22;5153711;27;20053;-68
2022/01/06 05:02:39;;;;;;;20.05;11.68;;;;;;;2.41;100.00;97537.16;5153137;27;20051;-68
2022/01/06 05:05:06;;;;;;;24.35;10.95;;;;;;;2.41;100.00;97527.13;5153180;27;20108;-68
2022/01/06 05:07:32;;;;;;;21.17;10.85;;;;;;;2.50;100.00;97519.59;5162954;27;20084;-68
2022/01/06 05:09:59;;;;;;;23.00;10.70;;;;;;;2.51;100.00;97513.06;5154714;27;20523;-68
2022/01/06 05:12:25;;;;;;;20.40;10.77;;;;;;;2.54;100.00;97519.69;5157506;27;20499;-68
2022/01/06 05:14:52;;;;;;;24.10;12.65;;;;;;;2.53;100.00;97521.59;5173660;27;20046;-68
2022/01/06 05:17:19;;;;;;;22.20;11.43;;;;;;;2.57;100.00;97525.19;5174022;27;20101;-68
2022/01/06 05:19:45;;;;;;;19.33;10.55;;;;;;;2.67;100.00;97523.84;5173536;27;20058;-69
2022/01/06 05:22:11;;;;;;;24.50;11.82;;;;;;;2.68;100.00;97533.53;5173741;27;20050;-69
2022/01/06 05:24:38;;;;;;;19.10;11.38;;;;;;;2.74;100.00;97537.53;5168202;27;20049;-68
2022/01/06 05:27:05;;;;;;;22.05;11.30;;;;;;;2.71;100.00;97545.56;5164279;27;20132;-68
2022/01/06 05:29:32;;;;;;;24.63;12.45;;;;;;;2.73;100.00;97544.09;5152776;27;20106;-68
2022/01/06 05:31:58;;;;;;;21.67;12.25;;;;;;;2.69;100.00;97548.63;5152653;27;20057;-68
2022/01/06 05:34:24;;;;;;;22.40;11.98;;;;;;;2.69;100.00;97570.25;5152883;27;20089;-69
2022/01/06 05:36:50;;;;;;;21.45;12.43;;;;;;;2.63;100.00;97568.94;5152912;27;20576;-68
2022/01/06 05:39:16;;;;;;;19.42;11.65;;;;;;;2.67;100.00;97569.06;5152522;27;20050;-68
2022/01/06 05:41:45;;;;;;;24.35;12.38;;;;;;;2.61;100.00;97568.53;5169033;27;20046;-67
2022/01/06 05:44:11;;;;;;;27.13;12.38;;;;;;;2.54;100.00;97560.25;5173218;27;20519;-69
2022/01/06 05:46:38;;;;;;;30.08;12.50;;;;;;;2.56;100.00;97556.03;5173154;27;20081;-68
2022/01/06 05:49:04;;;;;;;19.60;12.25;;;;;;;2.58;100.00;97553.00;5172975;27;20137;-65
2022/01/06 05:51:31;;;;;;;25.73;13.00;;;;;;;3.30;100.00;97533.69;5173665;27;20041;-67
2022/01/06 05:53:57;;;;;;;24.25;13.07;;;;;;;3.12;100.00;97571.22;5173225;27;20105;-64
2022/01/06 05:56:23;;;;;;;27.67;13.02;;;;;;;2.93;100.00;97600.94;5173195;27;20053;-64
2022/01/06 05:58:49;;;;;;;24.40;12.40;;;;;;;2.79;100.00;97604.91;5173118;27;20053;-64
2022/01/06 06:01:16;;;;;;;26.63;14.35;;;;;;;2.70;100.00;97595.41;5162297;27;20506;-65
2022/01/06 06:03:43;;;;;;;21.55;12.57;;;;;;;2.66;100.00;97586.41;5151978;27;20047;-63
2022/01/06 06:06:09;;;;;;;30.60;14.52;;;;;;;2.64;100.00;97586.00;5152013;27;20137;-62
2022/01/06 06:08:35;;;;;;;26.17;13.75;;;;;;;2.63;100.00;97582.47;5151471;27;20099;-63
2022/01/06 06:11:01;;;;;;;24.10;12.02;;;;;;;2.62;100.00;97580.13;5153395;27;20046;-64
2022/01/06 06:13:28;;;;;;;30.05;14.85;;;;;;;2.57;100.00;97578.50;5163283;27;20059;-63
2022/01/06 06:15:55;;;;;;;29.92;13.10;;;;;;;2.54;100.00;97568.38;5152149;27;20050;-64
2022/01/06 06:18:21;;;;;;;36.30;13.55;;;;;;;2.60;100.00;97572.38;5151794;27;20133;-64
2022/01/06 06:20:48;;;;;;;24.98;14.07;;;;;;;2.67;100.00;97561.72;5152162;27;20043;-64
2022/01/06 06:23:14;;;;;;;26.35;13.18;;;;;;;2.61;100.00;97560.41;5152053;27;20049;-65
2022/01/06 06:25:41;;;;;;;30.17;14.25;;;;;;;2.67;100.00;97558.25;5151964;27;20076;-66
2022/01/06 06:28:07;;;;;;;24.98;14.02;;;;;;;2.66;100.00;97556.66;5151228;27;20074;-65
2022/01/06 06:30:33;;;;;;;25.38;13.80;;;;;;;2.67;100.00;97558.25;5151963;27;20061;-62
2022/01/06 06:33:01;;;;;;;24.92;13.82;;;;;;;2.73;100.00;97560.31;5151846;27;20057;-59
2022/01/06 06:35:27;;;;;;;26.30;12.02;;;;;;;2.98;100.00;97546.56;5151665;27;20054;-61
2022/01/06 06:37:54;;;;;;;20.13;12.38;;;;;;;4.34;100.00;97514.63;5151865;27;20088;-62
2022/01/06 06:40:22;;;;;;;26.30;12.40;;;;;;;4.12;100.00;97597.56;5151550;27;20051;-64
2022/01/06 06:42:48;;;;;;;26.73;13.90;;;;;;;3.70;100.00;97662.63;5151879;27;20187;-64
2022/01/06 06:45:15;;;;;;;24.30;14.18;;;;;;;3.39;100.00;97677.81;5151515;27;20042;-63
2022/01/06 06:47:41;;;;;;;31.33;13.95;;;;;;;3.18;100.00;97678.13;5151207;27;20141;-64
2022/01/06 06:50:08;;;;;;;19.45;12.75;;;;;;;3.58;100.00;97660.03;5151508;27;20046;-67
2022/01/06 06:52:35;;;;;;;21.83;10.75;;;;;;;3.64;100.00;97667.53;5150770;27;20058;-67
2022/01/06 06:55:02;;;;;;;34.17;14.27;;;;;;;3.52;100.00;97675.78;5151149;27;20053;-67
2022/01/06 06:57:28;;;;;;;27.55;12.88;;;;;;;3.71;100.00;97675.00;5150877;27;20046;-66
2022/01/06 06:59:56;;;;;;;34.35;13.57;;;;;;;3.38;100.00;97692.50;5150828;27;20057;-67
2022/01/06 07:02:23;;;;;;;25.27;14.02;;;;;;;3.20;100.00;97697.53;5166704;27;20125;-66
2022/01/06 07:04:49;;;;;;;25.33;13.32;;;;;;;3.08;100.00;97686.00;5171845;27;20572;-59
2022/01/06 07:07:16;;;;;;;23.35;12.98;;;;;;;3.11;100.00;97672.53;5171068;27;20098;-61
2022/01/06 07:09:42;;;;;;;30.92;14.00;;;;;;;3.45;100.00;97662.06;5172248;27;20555;-66
2022/01/06 07:12:09;;;;;;;19.75;12.40;;;;;;;3.36;100.00;97658.78;5172362;27;20401;-62
2022/01/06 07:14:36;;;;;;;23.40;13.70;;;;;;;3.28;100.00;97664.03;5172115;27;20106;-61
2022/01/06 07:17:02;;;;;;;21.35;12.75;;;;;;;3.24;100.00;97665.88;5172144;27;20090;-61
2022/01/06 07:19:29;;;;;;;21.08;12.52;;;;;;;3.13;100.00;97670.25;5172026;27;20136;-60
2022/01/06 07:21:55;;;;;;;24.33;12.88;;;;;;;3.05;100.00;97669.31;5172023;27;20489;-58
2022/01/06 07:24:21;;;;;;;30.17;13.75;;;;;;;2.98;100.00;97655.63;5172271;27;20043;-64
2022/01/06 07:26:47;;;;;;;21.70;13.43;;;;;;;2.83;100.00;97659.09;5172547;27;20769;-61
2022/01/06 07:29:15;;;;;;;25.58;14.27;;;;;;;2.70;100.00;97652.22;5172123;27;20053;-62
2022/01/06 07:31:41;;;;;;;29.63;14.35;;;;;;;2.59;100.00;97639.22;5172004;27;20042;-61
2022/01/06 07:34:07;;;;;;;30.17;14.52;;;;;;;2.55;100.00;97618.63;5159324;27;20083;-61
2022/01/06 07:36:34;;;;;;;23.65;13.40;;;;;;;2.51;100.00;97602.31;5158014;27;20494;-61
2022/01/06 07:39:00;;;;;;;30.20;14.25;;;;;;;2.52;100.00;97584.94;5160239;27;20042;-63
2022/01/06 07:41:26;;;;;;;29.00;13.23;;;;;;;2.63;100.00;97571.66;5163596;27;20505;-63
2022/01/06 07:43:52;;;;;;;27.17;12.82;;;;;;;2.76;100.00;97559.59;5159933;27;20053;-59
2022/01/06 07:46:19;;;;;;;26.60;13.55;;;;;;;2.65;100.00;97572.09;5154436;27;20050;-63
2022/01/06 07:48:55;;;;;;;35.60;14.82;;;;;;;2.66;100.00;97564.78;5154176;27;20054;-60
2022/01/06 07:51:22;;;;;;;24.73;13.75;;;;;;;2.69;100.00;97564.84;5154266;27;20142;-60
2022/01/06 07:53:48;;;;;;;19.85;13.45;;;;;;;2.64;100.00;97578.66;5154433;27;20489;-64
2022/01/06 07:56:14;;;;;;;26.77;14.30;;;;;;;2.58;100.00;97575.44;5169950;27;20424;-61
2022/01/06 07:58:41;;;;;;;21.38;12.50;;;;;;;2.60;100.00;97566.97;5174918;27;20096;-60
2022/01/06 08:01:08;;;;;;;20.10;13.18;;;;;;;2.58;100.00;97564.59;5170257;27;20051;-72
2022/01/06 08:03:35;;;;;;;23.20;13.63;;;;;;;2.55;100.00;97572.66;5155239;27;20057;-63
2022/01/06 08:06:02;;;;;;;21.70;12.50;;;;;;;2.52;100.00;97570.63;5154455;27;20089;-64
2022/01/06 08:08:28;;;;;;;24.88;13.20;;;;;;;2.60;100.00;97564.28;5153796;27;20523;-64
2022/01/06 08:10:55;;;;;;;22.33;13.80;;;;;;;2.63;100.00;97571.66;5154028;27;20111;-66
2022/01/06 08:13:21;;;;;;;22.73;13.23;;;;;;;2.65;100.00;97569.41;5153636;27;20091;-66
2022/01/06 08:15:48;;;;;;;25.90;13.10;;;;;;;2.67;100.00;97569.06;5153726;27;20058;-66
2022/01/06 08:18:14;;;;;;;30.52;16.10;;;;;;;2.70;100.00;97569.16;5153694;27;20057;-66
2022/01/06 08:20:41;;;;;;;25.13;13.77;;;;;;;2.69;100.00;97577.59;5153621;27;20061;-66
2022/01/06 08:23:07;;;;;;;21.85;12.88;;;;;;;2.63;100.00;97593.31;5153472;27;20120;-66
2022/01/06 08:25:34;;;;;;;26.38;14.07;;;;;;;2.54;100.00;97600.84;5153888;27;20050;-66
2022/01/06 08:28:01;;;;;;;20.63;13.70;;;;;;;2.56;100.00;97601.25;5153796;27;20412;-66
2022/01/06 08:30:27;;;;;;;26.40;13.55;;;;;;;2.55;100.00;97603.19;5153805;27;20057;-66
2022/01/06 08:32:55;;;;;;;24.80;13.45;;;;;;;2.63;100.00;97604.13;5153665;27;20488;-67
2022/01/06 08:35:21;;;;;;;20.35;12.80;;;;;;;2.55;100.00;97610.50;5153777;27;20382;-66
2022/01/06 08:37:48;;;;;;;22.45;14.25;;;;;;;2.56;100.00;97618.28;5153601;27;20178;-66
2022/01/06 08:40:14;;;;;;;23.95;12.40;;;;;;;2.62;100.00;97628.84;5153241;27;20070;-66
2022/01/06 08:42:41;;;;;;;22.05;12.63;;;;;;;2.61;100.00;97609.13;5153139;27;20051;-66
2022/01/06 08:45:08;;;;;;;20.27;12.27;;;;;;;2.63;100.00;97609.53;5153071;27;20060;-67
2022/01/06 08:47:35;;;;;;;19.35;12.18;;;;;;;2.60;100.00;97621.09;5152915;27;20057;-64
2022/01/06 08:50:01;;;;;;;14.25;10.80;;;;;;;2.52;100.00;97630.16;5152563;27;20501;-66
2022/01/06 08:52:27;;;;;;;23.05;11.38;;;;;;;2.53;100.00;97632.53;5152881;27;20090;-65
2022/01/06 08:54:54;;;;;;;24.17;12.25;;;;;;;2.58;100.00;97640.34;5153255;27;20054;-65
2022/01/06 08:57:21;;;;;;;19.05;11.57;;;;;;;2.63;100.00;97644.72;5153464;27;20050;-65
2022/01/06 08:59:48;;;;;;;18.67;11.82;;;;;;;2.65;100.00;97645.16;5153140;27;20046;-66
2022/01/06 09:02:14;;;;;;;20.08;11.90;;;;;;;2.72;100.00;97636.44;5152897;27;20129;-65
2022/01/06 09:04:41;;;;;;;18.02;11.90;;;;;;;2.69;100.00;97648.72;5153072;27;20043;-65
2022/01/06 09:07:07;;;;;;;21.10;11.90;;;;;;;2.75;100.00;97652.75;5152498;27;20053;-66
2022/01/06 09:09:33;;;;;;;23.70;12.45;;;;;;;2.70;100.00;97666.56;5152933;27;20050;-66
2022/01/06 09:12:00;;;;;;;17.65;11.45;;;;;;;2.68;100.00;97670.75;5153043;27;20129;-65
2022/01/06 09:14:27;;;;;;;23.08;10.90;;;;;;;2.71;100.00;97676.25;5152956;27;20126;-66
2022/01/06 09:16:54;;;;;;;19.80;11.52;;;;;;;2.73;100.00;97675.88;5152667;27;20047;-65
2022/01/06 09:19:21;;;;;;;20.55;11.93;;;;;;;2.71;100.00;97678.16;5152834;27;20043;-65
2022/01/06 09:21:47;;;;;;;17.15;10.20;;;;;;;2.83;100.00;97670.75;5155989;27;20046;-66
2022/01/06 09:24:13;;;;;;;16.35;9.70;;;;;;;2.82;100.00;97690.03;5161261;27;20057;-65
2022/01/06 09:26:40;;;;;;;17.38;10.30;;;;;;;2.89;100.00;97690.19;5152389;27;20054;-66
2022/01/06 09:29:08;;;;;;;18.65;11.15;;;;;;;2.94;100.00;97703.47;5158083;27;20049;-66
2022/01/06 09:31:36;;;;;;;24.48;11.38;;;;;;;2.89;100.00;97705.66;5172593;27;20046;-65
2022/01/06 09:34:02;;;;;;;20.52;11.05;;;;;;;2.90;100.00;97723.47;5173600;27;20068;-65
2022/01/06 09:36:28;;;;;;;19.92;10.93;;;;;;;2.81;100.00;97720.94;5173209;27;20098;-65
2022/01/06 09:38:55;;;;;;;21.63;11.52;;;;;;;2.81;100.00;97713.59;5172984;27;20190;-65
2022/01/06 09:41:22;;;;;;;18.58;11.30;;;;;;;2.82;100.00;97717.09;5172708;27;20520;-69
2022/01/06 09:43:51;;;;;;;20.40;11.25;;;;;;;2.76;100.00;97721.97;5173077;27;20442;-69
2022/01/06 09:46:20;;;;;;;17.52;10.85;;;;;;;2.81;100.00;97724.44;5172468;27;20038;-62
2022/01/06 09:48:47;;;;;;;22.95;11.35;;;;;;;2.74;100.00;97732.38;5164079;27;20050;-63
2022/01/06 09:51:14;;;;;;;17.98;9.88;;;;;;;2.72;100.00;97731.91;5162114;27;20421;-61
2022/01/06 09:53:40;;;;;;;22.67;11.77;;;;;;;2.68;100.00;97730.28;5162173;27;20508;-64
2022/01/06 09:56:07;;;;;;;23.45;10.10;;;;;;;2.66;100.00;97727.91;5163115;27;20046;-61
2022/01/06 09:58:33;;;;;;;20.88;12.88;;;;;;;2.72;100.00;97737.34;5167252;27;20049;-61
2022/01/06 10:01:00;;;;;;;21.48;11.68;;;;;;;2.81;100.00;97727.13;5169210;27;20054;-63
2022/01/06 10:03:34;;;;;;;20.65;11.00;;;;;;;2.81;100.00;97742.59;5151430;27;20064;-61
2022/01/06 10:06:09;;;;;;;;;;;;;;;2.80;100.00;97730.19;5164191;27;20042;-61
2022/01/06 10:08:35;;;;;;;16.48;10.02;;;;;;;2.81;100.00;97735.25;5169727;27;19927;-64
2022/01/06 10:11:12;;;;;;;17.15;10.35;;;;;;;2.80;100.00;97741.81;5159073;27;20122;-59
2022/01/06 10:13:39;;;;;;;16.67;10.27;;;;;;;2.80;100.00;97741.03;5152552;27;20050;-64
2022/01/06 10:16:13;;;;;;;19.08;10.77;;;;;;;2.73;100.00;97744.34;5169555;27;20109;-61
2022/01/06 10:18:52;;;;;;;20.30;9.90;;;;;;;2.70;100.00;97742.31;5172791;27;20050;-61
2022/01/06 10:21:18;;;;;;;18.73;10.05;;;;;;;2.66;100.00;97760.38;5164616;27;20424;-61
2022/01/06 10:23:44;;;;;;;16.80;9.32;;;;;;;2.69;100.00;97761.59;5151731;27;20043;-59
2022/01/06 10:26:13;;;;;;;15.75;10.48;;;;;;;2.72;100.00;97767.09;5151968;27;20050;-61
2022/01/06 10:28:40;;;;;;;14.82;9.07;;;;;;;2.83;100.00;97745.72;5151978;27;20075;-61
2022/01/06 10:31:06;;;;;;;15.43;10.02;;;;;;;3.00;100.00;97752.72;5152000;27;20050;-61
2022/01/06 10:33:39;;;;;;;19.52;9.43;;;;;;;3.13;100.00;97751.50;5152368;27;20047;-62
2022/01/06 10:36:07;;;;;;;15.40;9.35;;;;;;;3.27;100.00;97759.97;5151539;27;20054;-60
2022/01/06 10:38:34;;;;;;;15.18;10.25;;;;;;;3.40;100.00;97755.25;5151713;27;20050;-59
2022/01/06 10:41:12;;;;;;;15.90;9.90;;;;;;;3.41;100.00;97775.00;5169533;27;20050;-60
2022/01/06 10:43:39;;;;;;;16.23;9.32;;;;;;;3.48;100.00;97775.94;5172860;27;20065;-63
2022/01/06 10:46:05;;;;;;;21.25;9.10;;;;;;;3.53;100.00;97783.81;5172087;27;20548;-63
2022/01/06 10:48:32;;;;;;;16.73;9.52;;;;;;;3.52;100.00;97786.84;5172567;27;20046;-59
2022/01/06 10:50:59;;;;;;;14.63;9.90;;;;;;;3.34;100.00;97799.22;5172384;27;20078;-60
2022/01/06 10:53:26;;;;;;;16.60;8.52;;;;;;;3.19;100.00;97803.47;5172216;27;20064;-62
2022/01/06 10:55:53;;;;;;;15.45;9.35;;;;;;;3.05;100.00;97796.56;5172352;27;20102;-59
2022/01/06 10:58:21;;;;;;;13.57;8.68;;;;;;;2.93;100.00;97799.38;5172428;27;20042;-60
2022/01/06 11:00:52;;;;;;;16.35;9.98;;;;;;;2.93;100.00;97799.38;5169927;27;20049;-63
2022/01/06 11:03:21;;;;;;;19.00;9.27;;;;;;;2.99;100.00;97797.94;5151591;27;20509;-60
2022/01/06 11:05:50;;;;;;;14.30;8.30;;;;;;;2.95;100.00;97804.41;5151818;27;20046;-60
2022/01/06 11:08:20;;;;;;;22.45;10.65;;;;;;;2.90;100.00;97791.94;5153015;27;20584;-73
2022/01/06 11:10:49;;;;;;;13.27;8.70;;;;;;;2.83;100.00;97797.16;5151029;27;20107;-63
2022/01/06 11:13:17;;;;;;;14.98;8.52;;;;;;;2.89;100.00;97803.09;5151483;27;20053;-61
2022/01/06 11:15:44;;;;;;;19.27;10.45;;;;;;;2.77;100.00;97804.75;5157726;27;20058;-61
2022/01/06 11:18:16;;;;;;;12.77;9.05;;;;;;;2.74;100.00;97791.13;5157696;27;20200;-62
2022/01/06 11:20:43;;;;;;;12.85;8.27;;;;;;;2.73;100.00;97794.94;5158111;27;20416;-63
2022/01/06 11:23:19;;;;;;;12.20;9.32;;;;;;;2.81;100.00;97789.38;5157918;27;20043;-63
2022/01/06 11:25:46;;;;;;;15.50;9.55;;;;;;;2.84;100.00;97790.63;5158277;27;20046;-62
2022/01/06 11:28:14;;;;;;;15.98;9.13;;;;;;;2.80;100.00;97790.53;5157922;27;20047;-60
2022/01/06 11:30:42;;;;;;;12.82;9.10;;;;;;;2.86;100.00;97782.91;5158475;27;20099;-60